Time;durP1;ratioP1;P1;durP2;ratioP2;P2;SDS_P1;SDS_P2;PMS_P1;PMS_P2;Temp;Humidity;BMP_temperature;BMP_pressure;BME280_temperature;BME280_humidity;BME280_pressure;Samples;Min_cycle;Max_cycle;Signal;HPM_P1;HPM_P2
2021/04/16 00:01:50;;;;;;;8.03;7.23;;;10.60;49.70;;;;;;5049170;28;20020;-57
2021/04/16 00:04:16;;;;;;;10.07;7.83;;;10.50;49.00;;;;;;5049161;28;20395;-54
2021/04/16 00:06:42;;;;;;;8.63;7.43;;;10.50;49.30;;;;;;5068233;28;20117;-57
2021/04/16 00:09:08;;;;;;;9.60;8.60;;;10.60;49.00;;;;;;5066066;28;20044;-56
2021/04/16 00:11:34;;;;;;;11.63;7.63;;;10.50;48.60;;;;;;5067576;28;20067;-58
2021/04/16 00:14:01;;;;;;;11.87;7.47;;;10.60;49.20;;;;;;5051701;28;20510;-57
2021/04/16 00:16:28;;;;;;;11.53;7.87;;;10.60;49.40;;;;;;5050750;28;20055;-58
2021/04/16 00:18:54;;;;;;;9.83;7.70;;;10.50;49.00;;;;;;5048095;28;20426;-57
2021/04/16 00:21:20;;;;;;;9.77;8.37;;;10.50;49.30;;;;;;5050429;28;20102;-57
2021/04/16 00:23:46;;;;;;;8.23;7.33;;;10.50;49.40;;;;;;5025284;28;21485;-56
2021/04/16 00:26:12;;;;;;;8.03;7.17;;;10.50;48.80;;;;;;5047185;28;20621;-55
2021/04/16 00:28:39;;;;;;;9.70;8.00;;;10.50;49.00;;;;;;5054634;28;20033;-57
2021/04/16 00:31:21;;;;;;;9.43;7.73;;;10.50;49.30;;;;;;5049813;28;20494;-56
2021/04/16 00:33:47;;;;;;;10.30;7.70;;;10.50;49.00;;;;;;5018958;28;20403;-55
2021/04/16 00:36:14;;;;;;;12.97;7.77;;;10.50;49.00;;;;;;5053855;28;20044;-55
2021/04/16 00:38:40;;;;;;;11.47;8.27;;;10.50;49.30;;;;;;5054771;28;20044;-53
2021/04/16 00:41:08;;;;;;;9.27;7.93;;;10.50;49.30;;;;;;5055144;28;20083;-55
2021/04/16 00:43:35;;;;;;;9.27;6.90;;;10.50;49.80;;;;;;5042145;28;20494;-54
2021/04/16 00:46:13;;;;;;;11.23;8.37;;;10.40;50.00;;;;;;5060876;28;20539;-56
2021/04/16 00:48:55;;;;;;;9.73;7.37;;;10.40;50.70;;;;;;5058058;28;20432;-58
2021/04/16 00:51:33;;;;;;;8.70;7.80;;;10.30;49.60;;;;;;5027511;28;20041;-56
2021/04/16 00:54:00;;;;;;;8.87;6.90;;;10.40;49.40;;;;;;5043522;28;20059;-56
2021/04/16 00:56:26;;;;;;;7.90;7.10;;;10.30;49.60;;;;;;5045192;28;20167;-57
2021/04/16 00:58:51;;;;;;;10.70;7.47;;;10.30;49.50;;;;;;5055712;28;20120;-57
2021/04/16 01:01:17;;;;;;;9.97;8.33;;;10.30;49.60;;;;;;5064053;28;20028;-57
2021/04/16 01:03:43;;;;;;;11.97;7.97;;;10.40;49.40;;;;;;5068030;28;20074;-58
2021/04/16 01:06:10;;;;;;;10.33;8.70;;;10.40;49.80;;;;;;5065835;28;20041;-55
2021/04/16 01:08:37;;;;;;;10.30;8.93;;;10.40;49.80;;;;;;5068682;28;20474;-55
2021/04/16 01:11:05;;;;;;;12.50;10.20;;;10.30;49.80;;;;;;5063735;28;20036;-58
2021/04/16 01:13:31;;;;;;;11.50;9.10;;;10.30;50.00;;;;;;5067663;28;20048;-55
2021/04/16 01:16:01;;;;;;;10.07;9.02;;;10.30;50.70;;;;;;5062009;28;20037;-57
2021/04/16 01:18:40;;;;;;;10.67;9.07;;;10.30;51.00;;;;;;5067237;28;20036;-57
2021/04/16 01:21:12;;;;;;;13.13;9.90;;;10.20;52.10;;;;;;5063134;28;20043;-57
2021/04/16 01:24:03;;;;;;;11.23;9.77;;;10.30;51.20;;;;;;5047173;28;20428;-58
2021/04/16 01:26:36;;;;;;;12.50;10.57;;;10.20;51.90;;;;;;5000195;28;20036;-56
2021/04/16 01:29:02;;;;;;;10.80;9.70;;;10.20;51.70;;;;;;5054963;28;20048;-57
2021/04/16 01:31:29;;;;;;;13.07;11.67;;;10.10;51.50;;;;;;5053904;28;20032;-55
2021/04/16 01:33:55;;;;;;;12.67;10.30;;;10.20;51.60;;;;;;5052323;28;20363;-57
2021/04/16 01:36:24;;;;;;;12.93;10.23;;;10.20;51.80;;;;;;5057813;28;20046;-58
2021/04/16 01:38:51;;;;;;;12.63;10.43;;;10.10;52.00;;;;;;5057043;28;20036;-58
2021/04/16 01:41:18;;;;;;;13.03;10.73;;;10.10;51.60;;;;;;5053486;28;20050;-57
2021/04/16 01:43:52;;;;;;;13.63;10.50;;;10.10;52.20;;;;;;5068333;28;20089;-57
2021/04/16 01:46:19;;;;;;;14.48;10.73;;;10.10;52.00;;;;;;5056861;28;20528;-58
2021/04/16 01:48:53;;;;;;;11.33;10.23;;;10.10;52.20;;;;;;5049133;28;20049;-56
2021/04/16 01:51:21;;;;;;;;;;;10.10;52.80;;;;;;5040406;28;20091;-57
2021/04/16 01:53:47;;;;;;;12.73;10.17;;;10.00;53.40;;;;;;5047004;28;19921;-55
2021/04/16 01:56:13;;;;;;;14.53;10.77;;;9.90;52.90;;;;;;5052547;28;20455;-58
2021/04/16 01:58:39;;;;;;;13.47;11.13;;;10.00;52.90;;;;;;5050512;28;20091;-57
2021/04/16 02:01:07;;;;;;;12.40;11.17;;;10.00;53.10;;;;;;5053918;28;20048;-57
2021/04/16 02:03:33;;;;;;;14.33;10.60;;;10.00;52.80;;;;;;5055313;28;20043;-56
2021/04/16 02:05:59;;;;;;;12.90;11.07;;;10.00;52.70;;;;;;5033497;28;20040;-56
2021/04/16 02:08:25;;;;;;;12.67;10.97;;;9.90;52.70;;;;;;5062784;28;20075;-57
2021/04/16 02:10:51;;;;;;;13.80;11.20;;;10.00;53.30;;;;;;5052607;28;20086;-57
2021/04/16 02:13:16;;;;;;;13.67;10.57;;;10.00;52.80;;;;;;5043923;28;20041;-57
2021/04/16 02:15:42;;;;;;;15.83;11.20;;;10.00;53.00;;;;;;5031786;28;20037;-58
2021/04/16 02:18:08;;;;;;;12.47;10.40;;;10.00;52.70;;;;;;5052383;28;20049;-57
2021/04/16 02:20:34;;;;;;;12.90;10.70;;;9.90;53.30;;;;;;5053877;28;20479;-56
2021/04/16 02:23:00;;;;;;;14.20;11.07;;;9.90;53.20;;;;;;5055333;28;20079;-53
2021/04/16 02:25:25;;;;;;;12.03;10.67;;;9.80;53.50;;;;;;5061586;28;20124;-56
2021/04/16 02:27:51;;;;;;;11.77;10.40;;;9.90;53.40;;;;;;5053215;28;20076;-58
2021/04/16 02:30:28;;;;;;;11.60;9.87;;;9.80;53.70;;;;;;5049308;28;20132;-55
2021/04/16 02:32:54;;;;;;;14.30;10.43;;;9.80;54.00;;;;;;5043017;28;20049;-53
2021/04/16 02:35:20;;;;;;;10.90;9.67;;;9.80;53.90;;;;;;5047594;28;20047;-57
2021/04/16 02:37:46;;;;;;;10.53;9.43;;;9.80;53.70;;;;;;5045065;28;20509;-58
2021/04/16 02:40:15;;;;;;;14.20;10.47;;;9.80;53.70;;;;;;5063589;28;20045;-56
2021/04/16 02:42:41;;;;;;;13.63;10.40;;;9.80;53.50;;;;;;5047981;28;20403;-58
2021/04/16 02:45:09;;;;;;;11.83;9.57;;;9.80;53.30;;;;;;5061426;28;20040;-55
2021/04/16 02:47:34;;;;;;;12.10;10.37;;;9.80;53.40;;;;;;5054195;28;20037;-55
2021/04/16 02:50:00;;;;;;;13.03;9.87;;;9.90;53.00;;;;;;5042826;28;20056;-54
2021/04/16 02:52:25;;;;;;;11.07;9.63;;;9.90;53.30;;;;;;5046643;28;20080;-57
2021/04/16 02:54:51;;;;;;;10.70;9.60;;;9.80;53.40;;;;;;5042300;28;20029;-57
2021/04/16 02:57:16;;;;;;;13.77;9.93;;;9.80;53.60;;;;;;5050480;28;20052;-57
2021/04/16 02:59:42;;;;;;;11.07;9.97;;;9.80;53.60;;;;;;5037478;28;20043;-57
2021/04/16 03:02:08;;;;;;;10.47;9.40;;;9.80;53.60;;;;;;5063346;28;20402;-52
2021/04/16 03:04:33;;;;;;;11.70;9.30;;;9.80;53.10;;;;;;5041542;28;20406;-56
2021/04/16 03:06:59;;;;;;;12.17;9.90;;;9.80;52.90;;;;;;5046950;28;20033;-57
2021/04/16 03:09:24;;;;;;;10.27;9.07;;;9.90;52.80;;;;;;5052438;28;20052;-56
2021/04/16 03:11:50;;;;;;;10.63;9.20;;;9.80;52.90;;;;;;5042305;28;20044;-56
2021/04/16 03:14:18;;;;;;;11.50;9.93;;;9.80;52.60;;;;;;5053867;28;20040;-56
2021/04/16 03:16:43;;;;;;;13.13;9.63;;;9.80;52.50;;;;;;5041769;28;20042;-54
2021/04/16 03:19:11;;;;;;;12.20;8.90;;;9.80;52.70;;;;;;5050740;28;20037;-54
2021/04/16 03:21:36;;;;;;;11.13;9.87;;;9.70;52.10;;;;;;5047049;28;20103;-56
2021/04/16 03:24:03;;;;;;;11.33;9.63;;;9.80;52.90;;;;;;5057370;28;20072;-55
2021/04/16 03:26:28;;;;;;;11.63;9.17;;;9.80;53.00;;;;;;5042808;28;20048;-54
2021/04/16 03:28:56;;;;;;;10.93;9.33;;;9.90;52.70;;;;;;5053188;28;20044;-56
2021/04/16 03:31:23;;;;;;;13.03;10.07;;;9.90;53.10;;;;;;5045163;28;20170;-56
2021/04/16 03:33:49;;;;;;;11.00;9.53;;;9.90;53.10;;;;;;5053597;28;20410;-54
2021/04/16 03:36:15;;;;;;;10.20;9.10;;;9.80;52.30;;;;;;5048453;28;20044;-57
2021/04/16 03:38:40;;;;;;;11.37;8.97;;;9.80;52.90;;;;;;5048287;28;20572;-53
2021/04/16 03:41:06;;;;;;;11.03;9.57;;;9.80;53.10;;;;;;5065986;28;20037;-55
2021/04/16 03:43:32;;;;;;;11.10;9.17;;;9.80;53.00;;;;;;5046254;28;20161;-54
2021/04/16 03:45:57;;;;;;;11.67;9.17;;;9.80;52.90;;;;;;5047104;28;20033;-55
2021/04/16 03:48:23;;;;;;;13.13;9.67;;;9.80;53.00;;;;;;5039627;28;20044;-56
2021/04/16 03:50:49;;;;;;;12.40;9.03;;;9.90;53.10;;;;;;5053817;28;20068;-55
2021/04/16 03:53:15;;;;;;;13.73;10.13;;;9.80;53.20;;;;;;5047544;28;20418;-57
2021/04/16 03:55:41;;;;;;;13.80;9.17;;;9.70;52.80;;;;;;5054076;28;20044;-56
2021/04/16 03:58:08;;;;;;;10.80;9.30;;;9.70;53.70;;;;;;5062542;28;20586;-57
2021/04/16 04:00:38;;;;;;;12.93;9.40;;;9.80;53.30;;;;;;5052334;28;20089;-56
2021/04/16 04:03:07;;;;;;;12.60;9.67;;;9.70;53.40;;;;;;5062450;28;20036;-55
2021/04/16 04:05:33;;;;;;;11.97;9.53;;;9.70;53.60;;;;;;5054321;28;20036;-57
2021/04/16 04:07:59;;;;;;;10.70;9.60;;;9.70;53.50;;;;;;5033605;28;20041;-57
2021/04/16 04:10:24;;;;;;;12.33;9.03;;;9.60;53.70;;;;;;5050151;28;20035;-54
2021/04/16 04:12:51;;;;;;;12.53;9.57;;;9.60;53.90;;;;;;5060884;28;20063;-57
2021/04/16 04:15:18;;;;;;;12.13;9.87;;;9.70;54.10;;;;;;5048253;28;20086;-55
2021/04/16 04:17:44;;;;;;;11.83;9.73;;;9.60;54.10;;;;;;5061757;28;20045;-55
2021/04/16 04:20:21;;;;;;;11.60;10.30;;;9.60;53.80;;;;;;5070749;28;20174;-54
2021/04/16 04:22:47;;;;;;;10.93;9.07;;;9.70;54.40;;;;;;5020095;28;20041;-55
2021/04/16 04:25:14;;;;;;;10.93;9.47;;;9.50;54.00;;;;;;5050393;28;20167;-56
2021/04/16 04:27:39;;;;;;;14.27;10.40;;;9.60;53.90;;;;;;5053939;28;20044;-57
2021/04/16 04:30:07;;;;;;;11.67;9.33;;;9.60;54.10;;;;;;5041936;28;20044;-57
2021/04/16 04:32:32;;;;;;;12.57;10.23;;;9.60;54.20;;;;;;5048930;28;20118;-56
2021/04/16 04:34:58;;;;;;;12.20;9.67;;;9.60;53.90;;;;;;5064370;28;20033;-58
2021/04/16 04:37:24;;;;;;;12.37;9.80;;;9.70;53.50;;;;;;5052011;28;20047;-55
2021/04/16 04:39:49;;;;;;;15.90;10.20;;;9.70;53.60;;;;;;5044250;28;20041;-56
2021/04/16 04:42:15;;;;;;;12.43;9.97;;;9.70;53.70;;;;;;5066694;28;20047;-57
2021/04/16 04:44:41;;;;;;;13.53;10.00;;;9.80;53.80;;;;;;5063949;28;20044;-57
2021/04/16 04:47:08;;;;;;;13.60;10.27;;;9.90;53.90;;;;;;5067799;28;20110;-57
2021/04/16 04:49:34;;;;;;;11.53;9.93;;;9.80;53.60;;;;;;5056780;28;20067;-53
2021/04/16 04:52:10;;;;;;;13.10;9.67;;;9.90;53.70;;;;;;5056435;28;20402;-55
2021/04/16 04:54:35;;;;;;;10.97;9.07;;;10.00;53.30;;;;;;5053035;28;20110;-56
2021/04/16 04:57:01;;;;;;;12.60;10.13;;;10.00;53.10;;;;;;5053846;28;20064;-57
2021/04/16 04:59:26;;;;;;;12.93;9.63;;;10.10;53.50;;;;;;5048819;28;20036;-55
2021/04/16 05:01:52;;;;;;;12.63;9.80;;;9.90;53.20;;;;;;5057943;28;20034;-57
2021/04/16 05:04:17;;;;;;;10.40;9.17;;;10.00;53.60;;;;;;5049645;28;20115;-58
2021/04/16 05:06:43;;;;;;;10.60;9.30;;;10.10;53.40;;;;;;5043546;28;20482;-57
2021/04/16 05:09:09;;;;;;;14.87;9.40;;;10.20;53.60;;;;;;5056845;28;20115;-58
2021/04/16 05:11:34;;;;;;;14.07;10.73;;;10.20;53.10;;;;;;5051941;28;20037;-57
2021/04/16 05:14:00;;;;;;;11.90;9.23;;;10.20;53.40;;;;;;5050795;28;20057;-57
2021/04/16 05:16:25;;;;;;;11.43;9.17;;;10.10;52.00;;;;;;5045166;28;20032;-55
2021/04/16 05:18:53;;;;;;;9.80;8.20;;;10.30;52.10;;;;;;5056436;28;20029;-53
2021/04/16 05:21:19;;;;;;;10.63;8.10;;;10.20;52.00;;;;;;5051913;28;20052;-57
2021/04/16 05:23:44;;;;;;;11.43;7.67;;;10.10;51.30;;;;;;5052412;28;20029;-57
2021/04/16 05:26:10;;;;;;;9.50;7.87;;;10.30;51.40;;;;;;5041781;28;20116;-56
2021/04/16 05:28:35;;;;;;;9.93;7.97;;;10.10;50.80;;;;;;5042710;28;20051;-56
2021/04/16 05:31:01;;;;;;;11.17;8.20;;;10.20;50.80;;;;;;5054749;28;20036;-57
2021/04/16 05:33:27;;;;;;;11.70;8.70;;;10.30;50.50;;;;;;5068299;28;20045;-58
2021/04/16 05:35:52;;;;;;;10.53;7.67;;;10.20;50.70;;;;;;5060245;28;20028;-53
2021/04/16 05:38:18;;;;;;;9.07;7.50;;;10.20;50.90;;;;;;5060805;28;20055;-56
2021/04/16 05:40:43;;;;;;;12.13;8.00;;;10.20;50.60;;;;;;5022994;28;20344;-57
2021/04/16 05:43:09;;;;;;;11.63;8.17;;;10.20;50.30;;;;;;5052996;28;20036;-57
2021/04/16 05:45:34;;;;;;;9.80;7.70;;;10.40;50.30;;;;;;5039697;28;20037;-56
2021/04/16 05:48:00;;;;;;;11.20;7.97;;;10.40;50.30;;;;;;5055600;28;20045;-54
2021/04/16 05:50:26;;;;;;;9.13;7.50;;;10.30;49.70;;;;;;5054963;28;20040;-55
2021/04/16 05:52:51;;;;;;;8.13;6.83;;;10.30;50.10;;;;;;5044954;28;20040;-56
2021/04/16 05:55:17;;;;;;;10.43;7.73;;;10.40;49.80;;;;;;5034000;28;20032;-57
2021/04/16 05:57:42;;;;;;;8.73;6.80;;;10.50;49.80;;;;;;5038413;28;20045;-56
2021/04/16 06:00:10;;;;;;;10.93;7.63;;;10.50;49.90;;;;;;5048881;28;20532;-55
2021/04/16 06:02:39;;;;;;;11.37;7.47;;;10.50;50.00;;;;;;5044714;28;20029;-54
2021/04/16 06:05:12;;;;;;;10.70;7.73;;;10.50;48.60;;;;;;5044492;28;20036;-56
2021/04/16 06:07:37;;;;;;;12.90;7.20;;;10.50;49.40;;;;;;5043675;28;20043;-58
2021/04/16 06:13:25;;;;;;;12.43;7.13;;;10.60;48.90;;;;;;4995181;28;20127;-55
2021/04/16 06:15:52;;;;;;;8.57;6.97;;;10.50;49.20;;;;;;5067777;28;20044;-57
2021/04/16 06:18:21;;;;;;;10.30;7.03;;;10.70;49.40;;;;;;5043083;28;20053;-55
2021/04/16 06:20:47;;;;;;;9.63;7.27;;;10.60;48.50;;;;;;5060535;28;20048;-55
2021/04/16 06:23:13;;;;;;;9.03;6.90;;;10.70;49.10;;;;;;5054806;28;20378;-56
2021/04/16 06:25:38;;;;;;;10.20;6.60;;;10.70;49.10;;;;;;5058869;28;20036;-56
2021/04/16 06:28:06;;;;;;;9.53;7.00;;;10.80;48.70;;;;;;5046382;28;20041;-55
2021/04/16 06:30:31;;;;;;;8.13;6.80;;;10.80;48.40;;;;;;5049618;28;20124;-53
2021/04/16 06:33:14;;;;;;;8.67;6.50;;;10.80;47.60;;;;;;5054695;28;20120;-56
2021/04/16 06:35:46;;;;;;;10.30;6.37;;;10.70;47.60;;;;;;5032108;28;20064;-55
2021/04/16 06:38:14;;;;;;;9.00;6.63;;;10.80;47.60;;;;;;5043185;28;20446;-56
2021/04/16 06:40:40;;;;;;;7.83;6.37;;;10.80;46.90;;;;;;5063268;28;20040;-55
2021/04/16 06:43:07;;;;;;;9.57;6.20;;;10.80;47.00;;;;;;5040508;28;20808;-56
2021/04/16 06:45:33;;;;;;;8.07;6.40;;;10.90;47.00;;;;;;5062450;28;20041;-56
2021/04/16 06:48:05;;;;;;;10.03;6.73;;;11.00;46.60;;;;;;5050422;28;20036;-57
2021/04/16 06:50:39;;;;;;;9.80;5.83;;;11.00;46.50;;;;;;5051809;28;20127;-55
2021/04/16 06:53:41;;;;;;;10.37;6.40;;;11.10;45.90;;;;;;5048540;28;20110;-56
2021/04/16 06:56:13;;;;;;;11.73;6.20;;;11.20;45.60;;;;;;5026286;28;20043;-57
2021/04/16 06:58:56;;;;;;;7.87;5.30;;;11.30;46.40;;;;;;5058909;28;20113;-57
2021/04/16 07:01:40;;;;;;;7.30;4.93;;;11.30;44.30;;;;;;5040674;28;20041;-57
2021/04/16 07:04:15;;;;;;;7.70;5.40;;;11.30;43.90;;;;;;5047930;28;20033;-57
2021/04/16 07:06:41;;;;;;;;;;;11.30;44.40;;;;;;5051592;28;20045;-54
2021/04/16 07:09:08;;;;;;;6.87;4.73;;;11.20;43.40;;;;;;5047728;28;19924;-54
2021/04/16 07:11:50;;;;;;;7.70;5.43;;;11.20;44.50;;;;;;5044763;28;20347;-56
2021/04/16 07:14:24;;;;;;;8.03;5.43;;;11.30;44.40;;;;;;5028764;28;20049;-57
2021/04/16 07:16:49;;;;;;;7.68;5.32;;;11.40;44.10;;;;;;5049893;28;20563;-57
2021/04/16 07:19:18;;;;;;;7.03;5.73;;;11.40;44.20;;;;;;5038695;28;20203;-55
2021/04/16 07:21:44;;;;;;;8.50;6.13;;;11.40;44.50;;;;;;5047147;28;20087;-57
2021/04/16 07:24:16;;;;;;;7.68;5.93;;;11.30;44.30;;;;;;5028115;28;20098;-54
2021/04/16 07:30:07;;;;;;;7.50;5.65;;;11.40;44.90;;;;;;4999219;28;20163;-57
2021/04/16 07:33:29;;;;;;;8.63;6.90;;;11.30;44.40;;;;;;5045875;28;20059;-56
2021/04/16 07:36:24;;;;;;;10.30;6.40;;;11.40;44.50;;;;;;5002111;28;20040;-58
2021/04/16 07:38:57;;;;;;;9.13;6.30;;;11.30;43.90;;;;;;5029669;28;20033;-57
2021/04/16 07:41:26;;;;;;;9.90;5.77;;;11.30;44.10;;;;;;5046163;28;20045;-58
2021/04/16 07:43:54;;;;;;;5.07;4.53;;;11.40;44.80;;;;;;5049095;28;20376;-57
2021/04/16 07:46:25;;;;;;;7.65;4.63;;;11.40;43.20;;;;;;5054509;28;20032;-57
2021/04/16 07:48:51;;;;;;;6.47;4.65;;;11.40;42.80;;;;;;5064366;28;20189;-58
2021/04/16 07:51:28;;;;;;;10.83;4.93;;;11.50;42.70;;;;;;5039446;28;20519;-57
2021/04/16 07:53:54;;;;;;;4.97;4.50;;;11.50;42.30;;;;;;5038294;28;20450;-55
2021/04/16 07:56:22;;;;;;;7.65;4.65;;;11.40;42.80;;;;;;5042259;28;20062;-58
2021/04/16 07:59:10;;;;;;;4.90;4.30;;;11.40;42.20;;;;;;5044381;28;20072;-58
2021/04/16 08:01:40;;;;;;;8.03;5.63;;;11.50;41.70;;;;;;5044768;28;20041;-56
2021/04/16 08:04:21;;;;;;;4.50;4.00;;;11.50;42.10;;;;;;5046337;28;20064;-57
2021/04/16 08:06:49;;;;;;;6.85;3.92;;;11.60;42.20;;;;;;5022958;28;20499;-58
2021/04/16 08:09:24;;;;;;;5.13;3.67;;;11.50;40.30;;;;;;5066078;28;20039;-56
2021/04/16 08:11:50;;;;;;;;;;;11.50;39.90;;;;;;5056605;28;20064;-57
2021/04/16 08:14:25;;;;;;;6.47;3.37;;;11.60;39.50;;;;;;5048244;28;19921;-54
2021/04/16 08:17:14;;;;;;;4.38;3.65;;;11.70;40.50;;;;;;5038226;28;20391;-56
2021/04/16 08:19:40;;;;;;;6.73;3.53;;;11.80;39.80;;;;;;5048008;28;20029;-58
2021/04/16 08:22:14;;;;;;;6.10;3.83;;;11.70;40.40;;;;;;5057589;28;20044;-58
2021/04/16 08:24:52;;;;;;;6.30;4.35;;;11.80;38.90;;;;;;5053444;28;20041;-58
2021/04/16 08:27:43;;;;;;;6.13;4.10;;;11.80;39.60;;;;;;5027104;28;20037;-57
2021/04/16 08:30:08;;;;;;;11.70;6.43;;;11.80;39.50;;;;;;5048065;28;20051;-58
2021/04/16 08:32:53;;;;;;;6.00;4.68;;;11.80;39.70;;;;;;5052489;28;20036;-56
2021/04/16 08:35:24;;;;;;;10.02;5.10;;;11.80;38.90;;;;;;5025444;28;20067;-57
2021/04/16 08:38:13;;;;;;;6.07;4.65;;;11.90;39.40;;;;;;5048022;28;20045;-58
2021/04/16 08:40:49;;;;;;;6.95;4.82;;;12.00;38.50;;;;;;5064845;28;20390;-58
2021/04/16 08:43:33;;;;;;;7.00;5.28;;;11.90;39.50;;;;;;5039259;28;20029;-58
2021/04/16 08:46:00;;;;;;;7.82;5.15;;;12.00;39.60;;;;;;5049450;28;20112;-58
2021/04/16 08:48:38;;;;;;;6.78;5.50;;;12.10;39.70;;;;;;5045285;28;20520;-57
2021/04/16 08:51:09;;;;;;;11.10;5.28;;;12.20;38.40;;;;;;5048801;28;20475;-57
2021/04/16 08:53:39;;;;;;;12.18;5.60;;;12.10;38.20;;;;;;5044825;28;20040;-58
2021/04/16 08:56:26;;;;;;;10.55;5.57;;;12.10;36.70;;;;;;5051976;28;20040;-57
2021/04/16 08:58:53;;;;;;;7.10;4.65;;;12.20;37.40;;;;;;4990182;28;20041;-58
2021/04/16 09:01:32;;;;;;;8.65;5.53;;;12.30;36.10;;;;;;5051849;28;20580;-56
2021/04/16 09:04:15;;;;;;;9.65;5.47;;;12.30;35.50;;;;;;5045980;28;20087;-55
2021/04/16 09:06:40;;;;;;;9.70;6.57;;;12.40;35.70;;;;;;5058262;28;20129;-58
2021/04/16 09:09:11;;;;;;;7.82;5.47;;;12.40;36.20;;;;;;5043991;28;20123;-59
2021/04/16 09:11:45;;;;;;;17.45;7.53;;;12.50;36.50;;;;;;5025759;28;20541;-58
2021/04/16 09:14:34;;;;;;;52.28;11.75;;;12.60;36.00;;;;;;5048941;28;20376;-57
2021/04/16 09:17:02;;;;;;;16.67;6.78;;;12.60;35.20;;;;;;5023451;28;20533;-56
2021/04/16 09:19:27;;;;;;;11.27;6.40;;;12.60;36.60;;;;;;5045537;28;20128;-59
2021/04/16 09:22:03;;;;;;;11.68;6.47;;;12.70;35.00;;;;;;5046490;28;21850;-55
2021/04/16 09:24:54;;;;;;;7.65;6.40;;;12.90;35.20;;;;;;5045273;28;20234;-56
2021/04/16 09:27:25;;;;;;;11.43;6.68;;;12.90;35.50;;;;;;5025024;28;20126;-56
2021/04/16 09:30:08;;;;;;;9.40;6.18;;;12.90;35.90;;;;;;5033411;28;20039;-56
2021/04/16 09:32:42;;;;;;;7.78;5.60;;;12.90;34.80;;;;;;5047225;28;20070;-56
2021/04/16 09:35:17;;;;;;;10.20;5.72;;;12.90;34.50;;;;;;5051556;28;20045;-56
2021/04/16 09:37:45;;;;;;;9.90;5.38;;;12.90;31.80;;;;;;5043869;28;20052;-56
2021/04/16 09:40:18;;;;;;;8.23;5.30;;;12.90;32.50;;;;;;5043260;28;20465;-56
2021/04/16 09:42:45;;;;;;;11.63;6.97;;;13.10;32.00;;;;;;5049195;28;20348;-57
2021/04/16 09:45:30;;;;;;;13.57;6.25;;;13.10;33.40;;;;;;5041916;28;20037;-56
2021/04/16 09:48:28;;;;;;;12.18;6.05;;;13.20;32.30;;;;;;4998802;28;20040;-57
2021/04/16 09:50:56;;;;;;;8.18;4.97;;;13.20;32.50;;;;;;5005874;28;20036;-57
2021/04/16 09:53:33;;;;;;;7.65;5.40;;;13.30;32.50;;;;;;5056019;28;20120;-57
2021/04/16 09:55:59;;;;;;;6.88;4.70;;;13.30;31.40;;;;;;5054417;28;20044;-58
2021/04/16 09:58:31;;;;;;;10.25;6.60;;;13.40;32.60;;;;;;5052712;28;20108;-58
2021/04/16 10:00:56;;;;;;;9.00;5.13;;;13.40;32.00;;;;;;5053771;28;20036;-57
2021/04/16 10:03:22;;;;;;;7.75;4.68;;;13.40;31.10;;;;;;5062548;28;20527;-58
2021/04/16 10:05:48;;;;;;;10.65;5.07;;;13.50;30.10;;;;;;5054759;28;20161;-58
2021/04/16 10:08:29;;;;;;;7.38;4.55;;;13.50;30.70;;;;;;5048735;28;20044;-58
2021/04/16 10:11:05;;;;;;;16.40;6.15;;;13.70;30.10;;;;;;5040997;28;20158;-57
2021/04/16 10:13:34;;;;;;;20.75;5.72;;;13.80;30.80;;;;;;5067118;28;20059;-57
2021/04/16 10:16:01;;;;;;;6.30;4.80;;;13.80;30.50;;;;;;5063137;28;20106;-56
2021/04/16 10:18:38;;;;;;;9.27;4.88;;;13.80;29.90;;;;;;5061919;28;20046;-57
2021/04/16 10:21:31;;;;;;;6.93;5.20;;;13.90;29.50;;;;;;5051652;28;20040;-58
2021/04/16 10:24:50;;;;;;;6.35;4.28;;;13.80;29.80;;;;;;5034647;28;20127;-58
2021/04/16 10:42:04;;;;;;;8.57;5.53;;;14.20;29.30;;;;;;5043494;28;20059;-59
2021/04/16 12:39:36;;;;;;;7.15;4.15;;;22.90;17.40;;;;;;5060707;28;20277;-58
2021/04/16 12:42:04;;;;;;;5.63;4.60;;;22.30;18.40;;;;;;5051096;28;20036;-56
2021/04/16 12:44:44;;;;;;;5.95;4.82;;;22.60;18.00;;;;;;5053441;28;20045;-58
2021/04/16 12:47:17;;;;;;;6.93;4.57;;;23.20;17.60;;;;;;5052846;28;20066;-59
2021/04/16 12:49:42;;;;;;;5.93;5.32;;;23.40;16.90;;;;;;5053562;28;20037;-57
2021/04/16 12:52:08;;;;;;;7.78;5.95;;;22.90;18.70;;;;;;5025638;28;20564;-57
2021/04/16 12:54:37;;;;;;;7.68;5.65;;;22.60;18.70;;;;;;5034587;28;20083;-56
2021/04/16 12:57:07;;;;;;;5.82;5.32;;;22.90;18.60;;;;;;5050454;28;20047;-56
2021/04/16 12:59:36;;;;;;;4.90;4.50;;;22.10;18.80;;;;;;5070341;28;20409;-57
2021/04/16 13:02:02;;;;;;;6.55;4.72;;;21.70;19.00;;;;;;5054891;28;20056;-58
2021/04/16 13:04:28;;;;;;;6.10;5.50;;;21.20;19.60;;;;;;5046037;28;20405;-58
2021/04/16 13:06:58;;;;;;;6.30;5.63;;;22.50;19.20;;;;;;5050594;28;20047;-57
2021/04/16 13:09:24;;;;;;;6.63;5.57;;;22.50;18.00;;;;;;5047325;28;20376;-57
2021/04/16 13:11:50;;;;;;;8.00;4.78;;;22.70;18.20;;;;;;5045863;28;20079;-57
2021/04/16 13:14:18;;;;;;;8.98;5.53;;;23.10;17.80;;;;;;5045177;28;20110;-56
2021/04/16 13:16:43;;;;;;;6.15;5.53;;;23.60;17.60;;;;;;5047362;28;20126;-57
2021/04/16 13:19:19;;;;;;;6.85;5.00;;;23.00;17.80;;;;;;5041580;28;20474;-58
2021/04/16 13:21:45;;;;;;;8.15;6.13;;;22.80;18.00;;;;;;5045475;28;20037;-57
2021/04/16 13:24:11;;;;;;;9.60;5.57;;;22.40;18.40;;;;;;5040741;28;20044;-56
2021/04/16 13:26:38;;;;;;;13.18;5.60;;;21.90;18.30;;;;;;5055618;28;20044;-58
2021/04/16 13:29:04;;;;;;;6.63;5.20;;;21.50;19.30;;;;;;5054355;28;20056;-56
2021/04/16 13:31:34;;;;;;;6.10;5.50;;;21.50;19.30;;;;;;5048912;28;20044;-57
2021/04/16 13:34:01;;;;;;;6.30;5.40;;;21.20;19.30;;;;;;5046876;28;20048;-58
2021/04/16 13:36:30;;;;;;;7.43;5.68;;;21.30;19.70;;;;;;5055967;28;20490;-57
2021/04/16 13:38:56;;;;;;;7.20;6.50;;;21.30;19.60;;;;;;5046136;28;20068;-58
2021/04/16 13:41:22;;;;;;;12.10;6.55;;;21.20;19.80;;;;;;5062694;28;20394;-56
2021/04/16 13:43:52;;;;;;;9.75;6.38;;;21.30;19.30;;;;;;5056344;28;20788;-57
2021/04/16 13:46:21;;;;;;;7.97;5.85;;;21.50;19.10;;;;;;5058972;28;20044;-58
2021/04/16 13:48:48;;;;;;;5.18;4.40;;;22.10;19.10;;;;;;5057491;28;20520;-56
2021/04/16 13:51:17;;;;;;;5.50;4.95;;;22.50;18.40;;;;;;5045311;28;20040;-57
2021/04/16 13:53:43;;;;;;;5.78;5.07;;;22.40;18.10;;;;;;5051149;28;20049;-56
2021/04/16 13:56:09;;;;;;;9.55;5.38;;;22.50;17.70;;;;;;5049181;28;20044;-57
2021/04/16 13:58:35;;;;;;;7.88;6.05;;;23.30;16.60;;;;;;5045508;28;20075;-58
2021/04/16 14:01:02;;;;;;;8.15;6.22;;;24.00;17.00;;;;;;5045623;28;20063;-57
2021/04/16 14:03:43;;;;;;;7.93;6.25;;;24.40;16.00;;;;;;5054961;28;20510;-57
2021/04/16 14:06:20;;;;;;;5.88;5.28;;;24.60;15.90;;;;;;5060101;28;20063;-57
2021/04/16 14:09:07;;;;;;;6.85;5.43;;;25.60;16.10;;;;;;5055448;28;20045;-58
2021/04/16 14:11:33;;;;;;;6.28;5.70;;;25.40;15.80;;;;;;5053121;28;20037;-57
2021/04/16 14:14:06;;;;;;;8.02;6.13;;;24.90;16.40;;;;;;5054925;28;20033;-56
2021/04/16 14:16:38;;;;;;;8.88;6.60;;;24.30;16.10;;;;;;5046235;28;20107;-58
2021/04/16 14:19:13;;;;;;;6.70;5.97;;;24.40;16.60;;;;;;5024522;28;20465;-57
2021/04/16 14:21:40;;;;;;;8.25;6.55;;;24.40;16.60;;;;;;5035731;28;20564;-58
2021/04/16 14:24:08;;;;;;;7.03;6.22;;;23.30;17.30;;;;;;5040316;28;20045;-58
2021/04/16 14:26:34;;;;;;;7.13;6.35;;;22.90;18.20;;;;;;5044099;28;20036;-55
2021/04/16 14:29:00;;;;;;;7.38;5.35;;;22.40;18.10;;;;;;5061177;28;20111;-57
2021/04/16 14:31:26;;;;;;;6.22;5.13;;;21.60;17.70;;;;;;5057895;28;20165;-57
2021/04/16 14:33:52;;;;;;;9.15;5.80;;;21.50;19.00;;;;;;5046123;28;20571;-57
2021/04/16 14:36:17;;;;;;;8.13;6.22;;;22.90;21.10;;;;;;5042540;28;20028;-57
2021/04/16 14:38:43;;;;;;;6.25;5.65;;;22.80;16.70;;;;;;5060312;28;20123;-55
2021/04/16 14:41:10;;;;;;;6.90;5.88;;;21.80;17.70;;;;;;5051921;28;20482;-54
2021/04/16 14:43:36;;;;;;;8.50;6.55;;;21.40;18.50;;;;;;5048348;28;20110;-56
2021/04/16 14:46:02;;;;;;;10.48;6.35;;;20.70;18.60;;;;;;5052070;28;20561;-58
2021/04/16 14:48:30;;;;;;;8.10;5.75;;;20.20;19.00;;;;;;5051994;28;20099;-58
2021/04/16 14:50:58;;;;;;;8.30;7.15;;;20.10;19.40;;;;;;5049715;28;20147;-57
2021/04/16 14:53:29;;;;;;;7.93;7.20;;;20.10;19.80;;;;;;5043682;28;20138;-58
2021/04/16 14:55:59;;;;;;;7.32;6.63;;;19.60;20.70;;;;;;5041281;28;20192;-56
2021/04/16 14:58:32;;;;;;;8.85;7.03;;;19.30;20.80;;;;;;5046834;28;20037;-56
2021/04/16 15:00:58;;;;;;;8.88;7.78;;;19.30;20.60;;;;;;5047482;28;20044;-56
2021/04/16 15:03:23;;;;;;;8.93;7.95;;;19.70;21.20;;;;;;5051276;28;20032;-57
2021/04/16 15:05:49;;;;;;;9.95;8.15;;;19.90;20.70;;;;;;5043617;28;20037;-56
2021/04/16 15:08:22;;;;;;;10.50;6.80;;;20.00;21.20;;;;;;5043508;28;20036;-56
2021/04/16 15:10:56;;;;;;;8.40;6.60;;;20.10;19.50;;;;;;5048713;28;20078;-55
2021/04/16 15:13:26;;;;;;;8.55;7.75;;;20.30;19.50;;;;;;5037320;28;20582;-55